Time;durP1;ratioP1;P1;durP2;ratioP2;P2;SDS_P1;SDS_P2;PMS_P1;PMS_P2;Temp;Humidity;BMP_temperature;BMP_pressure;BME280_temperature;BME280_humidity;BME280_pressure;Samples;Min_cycle;Max_cycle;Signal;HPM_P1;HPM_P2
2022/09/12 00:01:02;;;;;;;1.90;1.10;;;;;;;;;;5091179;28;20473;-65
2022/09/12 00:03:28;;;;;;;1.30;1.20;;;;;;;;;;5091061;28;21510;-66
2022/09/12 00:05:54;;;;;;;1.73;1.47;;;;;;;;;;5089500;28;20989;-66
2022/09/12 00:08:20;;;;;;;2.47;1.53;;;;;;;;;;5089817;28;20472;-65
2022/09/12 00:10:46;;;;;;;3.07;1.30;;;;;;;;;;5091196;28;20449;-66
2022/09/12 00:13:12;;;;;;;2.50;1.33;;;;;;;;;;5091620;28;20507;-65
2022/09/12 00:15:39;;;;;;;1.23;1.23;;;;;;;;;;5089003;28;20432;-65
2022/09/12 00:18:06;;;;;;;1.40;1.40;;;;;;;;;;5090931;28;20187;-65
2022/09/12 00:20:32;;;;;;;1.90;1.90;;;;;;;;;;5091042;28;20474;-65
2022/09/12 00:23:00;;;;;;;1.33;1.23;;;;;;;;;;5091230;28;20425;-65
2022/09/12 00:25:29;;;;;;;1.37;1.27;;;;;;;;;;5086982;28;20481;-66
2022/09/12 00:27:55;;;;;;;1.23;1.23;;;;;;;;;;5090468;28;20440;-65
2022/09/12 00:30:21;;;;;;;1.23;1.23;;;;;;;;;;5090895;28;20489;-66
2022/09/12 00:32:48;;;;;;;2.70;1.53;;;;;;;;;;5089401;28;20428;-65
2022/09/12 00:35:14;;;;;;;1.40;1.40;;;;;;;;;;5089083;28;20432;-65
2022/09/12 00:37:40;;;;;;;1.37;1.23;;;;;;;;;;5088913;28;20435;-66
2022/09/12 00:40:06;;;;;;;1.20;1.20;;;;;;;;;;5089123;28;20932;-65
2022/09/12 00:42:32;;;;;;;2.33;1.17;;;;;;;;;;5072809;28;20424;-65
2022/09/12 00:44:58;;;;;;;1.40;1.40;;;;;;;;;;5089735;28;20494;-65
2022/09/12 00:47:29;;;;;;;1.50;1.50;;;;;;;;;;5089800;28;20924;-65
2022/09/12 00:50:09;;;;;;;2.93;1.83;;;;;;;;;;5090050;28;20483;-65
2022/09/12 00:52:36;;;;;;;1.23;1.13;;;;;;;;;;5090238;28;20935;-65
2022/09/12 00:55:29;;;;;;;1.23;1.23;;;;;;;;;;5090255;28;20482;-66
2022/09/12 00:57:58;;;;;;;1.30;1.30;;;;;;;;;;5085508;28;20809;-65
2022/09/12 01:00:25;;;;;;;1.43;1.43;;;;;;;;;;5089627;28;20456;-66
2022/09/12 01:02:54;;;;;;;2.03;1.27;;;;;;;;;;5088743;28;20432;-65
2022/09/12 01:05:21;;;;;;;3.37;1.30;;;;;;;;;;5088945;28;20424;-66
2022/09/12 01:07:48;;;;;;;1.00;1.00;;;;;;;;;;5089933;28;20444;-65
2022/09/12 01:10:15;;;;;;;1.50;1.50;;;;;;;;;;5088657;28;20440;-65
2022/09/12 01:12:41;;;;;;;1.43;1.43;;;;;;;;;;5090531;28;20512;-65
2022/09/12 01:15:08;;;;;;;1.47;1.47;;;;;;;;;;5089966;28;20432;-65
2022/09/12 01:17:42;;;;;;;1.50;1.50;;;;;;;;;;5088454;28;20512;-66
2022/09/12 01:20:25;;;;;;;3.53;1.60;;;;;;;;;;5086726;28;20469;-65
2022/09/12 01:23:10;;;;;;;8.70;1.43;;;;;;;;;;5071080;28;20456;-65
2022/09/12 01:25:55;;;;;;;1.33;1.23;;;;;;;;;;5086678;28;20483;-66
2022/09/12 01:28:35;;;;;;;1.23;1.23;;;;;;;;;;5087650;28;20482;-65
2022/09/12 01:31:20;;;;;;;1.20;1.20;;;;;;;;;;5087501;28;20460;-65
2022/09/12 01:33:46;;;;;;;1.27;1.27;;;;;;;;;;5086758;28;20459;-65
2022/09/12 01:36:14;;;;;;;1.30;1.30;;;;;;;;;;5088820;28;21005;-65
2022/09/12 01:38:43;;;;;;;1.10;1.10;;;;;;;;;;5089112;28;20557;-65
2022/09/12 01:41:18;;;;;;;2.10;1.30;;;;;;;;;;5089204;28;20440;-65
2022/09/12 01:43:50;;;;;;;1.40;1.30;;;;;;;;;;5088869;28;20477;-65
2022/09/12 01:46:17;;;;;;;1.23;1.23;;;;;;;;;;5089322;28;20931;-65
2022/09/12 01:48:51;;;;;;;1.53;1.53;;;;;;;;;;5089682;28;20480;-65
2022/09/12 01:51:26;;;;;;;1.53;1.53;;;;;;;;;;5088667;28;21023;-65
2022/09/12 01:54:12;;;;;;;1.83;1.83;;;;;;;;;;5088869;28;20450;-66
2022/09/12 01:56:40;;;;;;;1.40;1.40;;;;;;;;;;5077513;28;21043;-65
2022/09/12 01:59:16;;;;;;;8.47;1.17;;;;;;;;;;5088393;28;20484;-66
2022/09/12 02:01:53;;;;;;;6.30;1.67;;;;;;;;;;5088983;28;20489;-65
2022/09/12 02:04:22;;;;;;;1.73;1.63;;;;;;;;;;5089212;28;20444;-65
2022/09/12 02:06:51;;;;;;;8.23;1.50;;;;;;;;;;5087862;28;20431;-65
2022/09/12 02:09:22;;;;;;;1.00;1.00;;;;;;;;;;5088396;28;20603;-65
2022/09/12 02:11:49;;;;;;;1.37;1.27;;;;;;;;;;5088676;28;20436;-65
2022/09/12 02:14:18;;;;;;;1.40;1.40;;;;;;;;;;5087709;28;20428;-65
2022/09/12 02:16:47;;;;;;;1.27;1.27;;;;;;;;;;5088020;28;20432;-65
2022/09/12 02:19:18;;;;;;;5.33;1.30;;;;;;;;;;5070573;28;20433;-66
2022/09/12 02:21:46;;;;;;;1.40;1.40;;;;;;;;;;5087659;28;20503;-66
2022/09/12 02:24:14;;;;;;;7.83;1.83;;;;;;;;;;5088855;28;20432;-65
2022/09/12 02:27:01;;;;;;;2.10;2.00;;;;;;;;;;5087247;28;20428;-65
2022/09/12 02:29:27;;;;;;;1.37;1.33;;;;;;;;;;5088706;28;20488;-65
2022/09/12 02:32:00;;;;;;;2.50;1.73;;;;;;;;;;5087626;28;20421;-66
2022/09/12 02:34:45;;;;;;;4.50;1.47;;;;;;;;;;5089394;28;20433;-65
2022/09/12 02:37:29;;;;;;;2.97;1.10;;;;;;;;;;5088159;28;20545;-65
2022/09/12 02:39:56;;;;;;;2.30;1.50;;;;;;;;;;5088968;28;20491;-66
2022/09/12 02:42:23;;;;;;;2.03;2.03;;;;;;;;;;5089051;28;21136;-65
2022/09/12 02:44:53;;;;;;;1.20;1.20;;;;;;;;;;5089091;28;20996;-65
2022/09/12 02:47:22;;;;;;;1.57;1.53;;;;;;;;;;5088501;28;20957;-65
2022/09/12 02:49:48;;;;;;;1.60;1.50;;;;;;;;;;5086543;28;20484;-66
2022/09/12 02:52:14;;;;;;;1.63;1.53;;;;;;;;;;5088661;28;20404;-66
2022/09/12 02:54:40;;;;;;;1.70;1.70;;;;;;;;;;5089205;28;20424;-66
2022/09/12 02:57:15;;;;;;;2.07;2.07;;;;;;;;;;5088957;28;20478;-65
2022/09/12 02:59:41;;;;;;;2.20;2.10;;;;;;;;;;5087479;28;20758;-66
2022/09/12 03:02:17;;;;;;;2.30;2.20;;;;;;;;;;5087221;28;20428;-65
2022/09/12 03:05:07;;;;;;;2.00;1.90;;;;;;;;;;5089272;28;20439;-65
2022/09/12 03:07:51;;;;;;;3.37;1.93;;;;;;;;;;5088832;28;20444;-65
2022/09/12 03:10:23;;;;;;;2.30;2.20;;;;;;;;;;5090044;28;20465;-66
2022/09/12 03:12:52;;;;;;;2.17;2.07;;;;;;;;;;5092520;28;20432;-65
2022/09/12 03:15:18;;;;;;;1.67;1.67;;;;;;;;;;5092401;28;20923;-65
2022/09/12 03:17:56;;;;;;;1.70;1.70;;;;;;;;;;5092622;28;20436;-66
2022/09/12 03:20:22;;;;;;;1.50;1.33;;;;;;;;;;5091219;28;20199;-66
2022/09/12 03:22:53;;;;;;;2.07;1.97;;;;;;;;;;5091172;28;20417;-66
2022/09/12 03:25:20;;;;;;;1.83;1.83;;;;;;;;;;5091722;28;20433;-66
2022/09/12 03:27:52;;;;;;;1.90;1.80;;;;;;;;;;5091310;28;20429;-65
2022/09/12 03:30:18;;;;;;;1.60;1.60;;;;;;;;;;5089372;28;20494;-66
2022/09/12 03:32:48;;;;;;;1.67;1.63;;;;;;;;;;5092523;28;20421;-65
2022/09/12 03:35:15;;;;;;;1.97;1.87;;;;;;;;;;5092369;28;20417;-67
2022/09/12 03:37:41;;;;;;;2.10;2.00;;;;;;;;;;5091913;28;20416;-65
2022/09/12 03:40:08;;;;;;;1.53;1.53;;;;;;;;;;5090020;28;20436;-65
2022/09/12 03:42:35;;;;;;;2.20;2.00;;;;;;;;;;5091009;28;20435;-67
2022/09/12 03:45:01;;;;;;;6.43;1.60;;;;;;;;;;5090160;28;20456;-66
2022/09/12 03:47:27;;;;;;;1.70;1.60;;;;;;;;;;5091626;28;20459;-66
2022/09/12 03:49:53;;;;;;;1.50;1.50;;;;;;;;;;5091151;28;21047;-66
2022/09/12 03:52:19;;;;;;;3.03;1.53;;;;;;;;;;5088267;28;20456;-66
2022/09/12 03:54:45;;;;;;;1.67;1.57;;;;;;;;;;5088547;28;20432;-66
2022/09/12 03:57:11;;;;;;;1.60;1.60;;;;;;;;;;5090179;28;20439;-65
2022/09/12 03:59:38;;;;;;;1.43;1.43;;;;;;;;;;5089816;28;20551;-66
2022/09/12 04:02:04;;;;;;;1.80;1.80;;;;;;;;;;5089300;28;20528;-65
2022/09/12 04:04:30;;;;;;;1.83;1.73;;;;;;;;;;5090236;28;20516;-65
2022/09/12 04:06:56;;;;;;;3.70;1.33;;;;;;;;;;5090262;28;20498;-65
2022/09/12 04:09:22;;;;;;;1.80;1.70;;;;;;;;;;5090546;28;20490;-66
2022/09/12 04:11:48;;;;;;;1.27;1.27;;;;;;;;;;5091208;28;20424;-67
2022/09/12 04:14:14;;;;;;;1.60;1.60;;;;;;;;;;5089516;28;20482;-66
2022/09/12 04:16:40;;;;;;;1.40;1.40;;;;;;;;;;5088441;28;20917;-65
2022/09/12 04:19:06;;;;;;;1.30;1.30;;;;;;;;;;5090175;28;20494;-66
2022/09/12 04:21:32;;;;;;;1.13;1.13;;;;;;;;;;5088744;28;20512;-67
2022/09/12 04:23:58;;;;;;;1.40;1.40;;;;;;;;;;5089947;28;20519;-66
2022/09/12 04:26:24;;;;;;;1.33;1.33;;;;;;;;;;5090547;28;20873;-67
2022/09/12 04:28:56;;;;;;;1.40;1.40;;;;;;;;;;5091010;28;20487;-66
2022/09/12 04:31:22;;;;;;;2.20;1.30;;;;;;;;;;5087636;28;20436;-67
2022/09/12 04:33:59;;;;;;;1.20;1.20;;;;;;;;;;5088077;28;20436;-66
2022/09/12 04:36:25;;;;;;;1.10;1.10;;;;;;;;;;5088568;28;20429;-65
2022/09/12 04:38:52;;;;;;;1.87;1.60;;;;;;;;;;5090223;28;20424;-66
2022/09/12 04:41:21;;;;;;;2.07;2.07;;;;;;;;;;5089268;28;20428;-66
2022/09/12 04:43:51;;;;;;;1.30;1.30;;;;;;;;;;5089928;28;20943;-65
2022/09/12 04:46:20;;;;;;;1.80;1.70;;;;;;;;;;5087751;28;20820;-65
2022/09/12 04:48:47;;;;;;;1.63;1.50;;;;;;;;;;5089717;28;20487;-66
2022/09/12 04:51:14;;;;;;;3.50;1.67;;;;;;;;;;5089498;28;21021;-65
2022/09/12 04:53:41;;;;;;;3.70;1.60;;;;;;;;;;5089303;28;20479;-66
2022/09/12 04:56:08;;;;;;;1.60;1.60;;;;;;;;;;5088434;28;20463;-66
2022/09/12 04:58:34;;;;;;;3.10;2.90;;;;;;;;;;5089944;28;20476;-66
2022/09/12 05:01:07;;;;;;;1.80;1.80;;;;;;;;;;5087985;28;21065;-66
2022/09/12 05:03:34;;;;;;;1.93;1.47;;;;;;;;;;5089038;28;20774;-67
2022/09/12 05:06:02;;;;;;;3.03;1.20;;;;;;;;;;5086676;28;20448;-66
2022/09/12 05:08:28;;;;;;;1.07;1.07;;;;;;;;;;5088023;28;20483;-66
2022/09/12 05:10:54;;;;;;;1.70;1.70;;;;;;;;;;5088823;28;20485;-65
2022/09/12 05:13:21;;;;;;;3.70;1.80;;;;;;;;;;5090078;28;20439;-66
2022/09/12 05:15:59;;;;;;;3.70;1.90;;;;;;;;;;5088672;28;20424;-66
2022/09/12 05:18:25;;;;;;;4.13;2.67;;;;;;;;;;5089790;28;20451;-66
2022/09/12 05:20:52;;;;;;;1.80;1.80;;;;;;;;;;5083123;28;20892;-65
2022/09/12 05:23:18;;;;;;;2.50;1.63;;;;;;;;;;5083080;28;20435;-66
2022/09/12 05:25:54;;;;;;;6.17;1.63;;;;;;;;;;5086731;28;20437;-66
2022/09/12 05:28:20;;;;;;;4.37;1.40;;;;;;;;;;5088824;28;20451;-65
2022/09/12 05:30:46;;;;;;;2.60;2.00;;;;;;;;;;5086178;28;20904;-65
2022/09/12 05:33:13;;;;;;;2.40;1.30;;;;;;;;;;5086509;28;20845;-66
2022/09/12 05:35:39;;;;;;;2.07;1.17;;;;;;;;;;5084974;28;20436;-65
2022/09/12 05:38:05;;;;;;;1.63;1.37;;;;;;;;;;5087567;28;20425;-65
2022/09/12 05:40:31;;;;;;;3.07;1.70;;;;;;;;;;5088018;28;20468;-65
2022/09/12 05:42:57;;;;;;;6.23;2.50;;;;;;;;;;5086957;28;20436;-65
2022/09/12 05:45:23;;;;;;;2.40;2.30;;;;;;;;;;5068441;28;20936;-65
2022/09/12 05:47:49;;;;;;;2.50;2.00;;;;;;;;;;5086469;28;20464;-65
2022/09/12 05:50:15;;;;;;;3.33;2.57;;;;;;;;;;5082471;28;20496;-65
2022/09/12 05:52:41;;;;;;;3.00;2.90;;;;;;;;;;5085509;28;20771;-65
2022/09/12 05:55:07;;;;;;;2.80;2.70;;;;;;;;;;5086199;28;20440;-66
2022/09/12 05:57:33;;;;;;;4.47;4.17;;;;;;;;;;5085251;28;20975;-65
2022/09/12 06:00:00;;;;;;;2.60;2.50;;;;;;;;;;5088251;28;20451;-65
2022/09/12 06:02:26;;;;;;;2.10;2.10;;;;;;;;;;5087237;28;20464;-65
2022/09/12 06:04:52;;;;;;;3.53;2.57;;;;;;;;;;5086097;28;20476;-66
2022/09/12 06:07:17;;;;;;;2.10;2.00;;;;;;;;;;5086916;28;20511;-66
2022/09/12 06:09:43;;;;;;;2.27;2.27;;;;;;;;;;5088064;28;20476;-66
2022/09/12 06:12:10;;;;;;;3.10;2.90;;;;;;;;;;5089101;28;20182;-65
2022/09/12 06:14:36;;;;;;;1.70;1.70;;;;;;;;;;5086998;28;20673;-67
2022/09/12 06:17:02;;;;;;;2.17;1.97;;;;;;;;;;5084135;28;20928;-65
2022/09/12 06:19:28;;;;;;;2.13;1.80;;;;;;;;;;5085496;28;20464;-65
2022/09/12 06:21:54;;;;;;;2.60;2.40;;;;;;;;;;5068379;28;20477;-66
2022/09/12 06:24:20;;;;;;;2.60;2.10;;;;;;;;;;5086236;28;20436;-65
2022/09/12 06:26:47;;;;;;;5.70;2.60;;;;;;;;;;5083628;28;20431;-67
2022/09/12 06:29:13;;;;;;;3.13;2.70;;;;;;;;;;5084955;28;20494;-66
2022/09/12 06:31:40;;;;;;;2.80;2.27;;;;;;;;;;5083305;28;20483;-66
2022/09/12 06:34:08;;;;;;;3.80;2.50;;;;;;;;;;5083305;28;20472;-67
2022/09/12 06:36:36;;;;;;;11.30;2.50;;;;;;;;;;5084617;28;20452;-66
2022/09/12 06:39:06;;;;;;;4.30;3.90;;;;;;;;;;5083753;28;20489;-67
2022/09/12 06:41:32;;;;;;;2.63;2.10;;;;;;;;;;5087910;28;20564;-66
2022/09/12 06:43:59;;;;;;;6.27;3.10;;;;;;;;;;5087243;28;20581;-66
2022/09/12 06:46:25;;;;;;;3.00;2.60;;;;;;;;;;5088285;28;20441;-68
2022/09/12 06:48:52;;;;;;;4.97;2.90;;;;;;;;;;5090978;28;21100;-66
2022/09/12 06:51:21;;;;;;;2.47;2.27;;;;;;;;;;5092137;28;20562;-66
2022/09/12 06:53:48;;;;;;;4.47;2.80;;;;;;;;;;5091832;28;20416;-67
2022/09/12 06:56:14;;;;;;;4.43;2.70;;;;;;;;;;5089960;28;20440;-67
2022/09/12 06:58:40;;;;;;;4.53;2.83;;;;;;;;;;5091144;28;20470;-66
2022/09/12 07:01:14;;;;;;;2.60;2.43;;;;;;;;;;5091220;28;20467;-67
2022/09/12 07:03:41;;;;;;;2.90;2.70;;;;;;;;;;5091281;28;20872;-66
2022/09/12 07:06:11;;;;;;;11.10;2.80;;;;;;;;;;5090590;28;20977;-66
2022/09/12 07:08:38;;;;;;;3.03;2.83;;;;;;;;;;5090835;28;20481;-66
2022/09/12 07:11:19;;;;;;;10.80;2.77;;;;;;;;;;5090409;28;20478;-68
2022/09/12 07:13:46;;;;;;;2.30;2.20;;;;;;;;;;5091990;28;20436;-66
2022/09/12 07:16:12;;;;;;;3.83;3.37;;;;;;;;;;5091331;28;20490;-66
2022/09/12 07:18:38;;;;;;;5.60;3.00;;;;;;;;;;5090498;28;20515;-66
2022/09/12 07:21:06;;;;;;;5.10;3.23;;;;;;;;;;5091061;28;20432;-66
2022/09/12 07:23:32;;;;;;;3.10;2.97;;;;;;;;;;5090398;28;20429;-67
2022/09/12 07:25:59;;;;;;;4.10;3.47;;;;;;;;;;5090082;28;20535;-66
2022/09/12 07:28:26;;;;;;;3.60;2.60;;;;;;;;;;5089132;28;21029;-67
2022/09/12 07:30:55;;;;;;;2.03;2.03;;;;;;;;;;5089512;28;20437;-66
2022/09/12 07:33:22;;;;;;;5.10;4.80;;;;;;;;;;5091157;28;20610;-67
2022/09/12 07:35:48;;;;;;;2.40;2.30;;;;;;;;;;5091181;28;20528;-66
2022/09/12 07:38:14;;;;;;;2.20;2.20;;;;;;;;;;5089211;28;20440;-67
2022/09/12 07:40:40;;;;;;;3.27;3.17;;;;;;;;;;5088312;28;20439;-66
2022/09/12 07:43:06;;;;;;;5.30;3.30;;;;;;;;;;5091280;28;20805;-66
2022/09/12 07:45:32;;;;;;;3.03;2.83;;;;;;;;;;5087923;28;20452;-66
2022/09/12 07:47:59;;;;;;;3.37;3.17;;;;;;;;;;5090104;28;20489;-66
2022/09/12 07:50:25;;;;;;;2.30;2.20;;;;;;;;;;5090023;28;20432;-67
2022/09/12 07:52:53;;;;;;;3.67;3.50;;;;;;;;;;5090424;28;20436;-68
2022/09/12 07:55:19;;;;;;;6.23;3.70;;;;;;;;;;5090953;28;20428;-66
2022/09/12 07:57:48;;;;;;;4.60;4.30;;;;;;;;;;5089762;28;20831;-68
2022/09/12 08:00:14;;;;;;;2.80;2.60;;;;;;;;;;5087735;28;20514;-67
2022/09/12 08:02:40;;;;;;;5.80;4.40;;;;;;;;;;5090855;28;20432;-67
2022/09/12 08:05:06;;;;;;;4.03;3.80;;;;;;;;;;5069880;28;20935;-67
2022/09/12 08:07:33;;;;;;;3.57;3.47;;;;;;;;;;5091008;28;20424;-67
2022/09/12 08:09:59;;;;;;;3.33;2.40;;;;;;;;;;5091171;28;20486;-67
2022/09/12 08:12:25;;;;;;;3.13;3.03;;;;;;;;;;5089160;28;20429;-67
2022/09/12 08:14:51;;;;;;;4.53;4.23;;;;;;;;;;5091250;28;20428;-69
2022/09/12 08:17:17;;;;;;;3.10;2.90;;;;;;;;;;5091582;28;20419;-68
2022/09/12 08:19:43;;;;;;;8.53;3.70;;;;;;;;;;5091111;28;20194;-67
2022/09/12 08:22:10;;;;;;;4.70;4.40;;;;;;;;;;5088748;28;20431;-69
2022/09/12 08:24:36;;;;;;;3.57;3.33;;;;;;;;;;5088320;28;20514;-67
2022/09/12 08:27:02;;;;;;;5.87;3.20;;;;;;;;;;5089431;28;20433;-67
2022/09/12 08:29:28;;;;;;;3.73;2.93;;;;;;;;;;5087906;28;20480;-68
2022/09/12 08:31:53;;;;;;;4.50;4.20;;;;;;;;;;5089067;28;20433;-67
2022/09/12 08:34:19;;;;;;;4.10;2.93;;;;;;;;;;5085988;28;20441;-66
2022/09/12 08:36:45;;;;;;;14.53;4.87;;;;;;;;;;5086855;28;20456;-67
2022/09/12 08:39:13;;;;;;;3.43;3.33;;;;;;;;;;5085915;28;20432;-67
2022/09/12 08:41:40;;;;;;;7.03;4.47;;;;;;;;;;5085826;28;20428;-67
2022/09/12 08:44:27;;;;;;;5.37;4.83;;;;;;;;;;5086051;28;20925;-67
2022/09/12 08:47:05;;;;;;;4.17;3.77;;;;;;;;;;5083219;28;20514;-67
2022/09/12 08:49:33;;;;;;;4.30;4.10;;;;;;;;;;5085301;28;20487;-66
2022/09/12 08:52:02;;;;;;;4.77;4.27;;;;;;;;;;5086130;28;20432;-66
2022/09/12 08:54:29;;;;;;;3.70;3.50;;;;;;;;;;5085464;28;20432;-67
2022/09/12 08:57:00;;;;;;;5.70;5.27;;;;;;;;;;5087107;28;20425;-67
2022/09/12 08:59:26;;;;;;;4.80;4.50;;;;;;;;;;5086971;28;20522;-67
2022/09/12 09:01:55;;;;;;;9.80;5.10;;;;;;;;;;5088633;28;20495;-67
2022/09/12 09:04:30;;;;;;;5.40;4.80;;;;;;;;;;5087288;28;20436;-68
2022/09/12 09:06:58;;;;;;;5.50;5.10;;;;;;;;;;5087856;28;20862;-67
2022/09/12 09:09:26;;;;;;;4.50;4.20;;;;;;;;;;5088882;28;20484;-69
2022/09/12 09:11:55;;;;;;;5.73;5.40;;;;;;;;;;5090504;28;20428;-67
2022/09/12 09:14:51;;;;;;;5.73;4.77;;;;;;;;;;5068683;28;20424;-66
2022/09/12 09:17:25;;;;;;;16.83;5.33;;;;;;;;;;5071185;28;20436;-68
2022/09/12 09:19:57;;;;;;;4.87;3.43;;;;;;;;;;5088538;28;20470;-67
2022/09/12 09:22:43;;;;;;;4.13;4.03;;;;;;;;;;5087399;28;20759;-66
2022/09/12 09:25:19;;;;;;;3.33;3.13;;;;;;;;;;5089721;28;20805;-67
2022/09/12 09:27:53;;;;;;;4.27;3.73;;;;;;;;;;5089410;28;20885;-67
2022/09/12 09:30:20;;;;;;;4.40;4.07;;;;;;;;;;5087631;28;21001;-66
2022/09/12 09:32:50;;;;;;;5.40;3.57;;;;;;;;;;5087670;28;21188;-67
2022/09/12 09:35:18;;;;;;;2.90;2.80;;;;;;;;;;5089848;28;20436;-67
2022/09/12 09:37:51;;;;;;;2.80;2.70;;;;;;;;;;5088215;28;20908;-66
2022/09/12 09:40:33;;;;;;;2.67;2.57;;;;;;;;;;5088863;28;20457;-67
2022/09/12 09:42:59;;;;;;;2.40;2.20;;;;;;;;;;5089803;28;20428;-66
2022/09/12 09:45:28;;;;;;;4.50;2.70;;;;;;;;;;5087600;28;20952;-66
2022/09/12 09:48:00;;;;;;;2.00;1.97;;;;;;;;;;5089355;28;20440;-66
2022/09/12 09:50:27;;;;;;;4.53;3.70;;;;;;;;;;5089447;28;20476;-65
2022/09/12 09:52:53;;;;;;;3.60;2.70;;;;;;;;;;5088690;28;20646;-67
2022/09/12 09:55:22;;;;;;;7.63;4.13;;;;;;;;;;5089084;28;20516;-66
2022/09/12 09:57:48;;;;;;;3.40;3.20;;;;;;;;;;5087965;28;20805;-68
2022/09/12 10:00:31;;;;;;;2.80;2.70;;;;;;;;;;5080837;28;20448;-67
2022/09/12 10:03:11;;;;;;;2.63;2.53;;;;;;;;;;5084421;28;20425;-66
2022/09/12 10:05:53;;;;;;;2.20;2.10;;;;;;;;;;5082359;28;20818;-67
2022/09/12 10:08:25;;;;;;;4.37;2.83;;;;;;;;;;5084538;28;20436;-66
2022/09/12 10:11:00;;;;;;;2.87;2.67;;;;;;;;;;5083391;28;21148;-68
2022/09/12 10:13:52;;;;;;;2.77;2.67;;;;;;;;;;5087070;28;20424;-67
2022/09/12 10:16:22;;;;;;;3.90;2.83;;;;;;;;;;5078873;28;20784;-66
2022/09/12 10:18:49;;;;;;;4.00;2.50;;;;;;;;;;5087945;28;20791;-66
2022/09/12 10:21:28;;;;;;;4.93;3.00;;;;;;;;;;5091029;28;20429;-68
2022/09/12 10:24:02;;;;;;;2.70;2.50;;;;;;;;;;5092921;28;20943;-67
2022/09/12 10:26:32;;;;;;;4.30;2.97;;;;;;;;;;5091365;28;20938;-67
2022/09/12 10:29:02;;;;;;;1.93;1.80;;;;;;;;;;5092051;28;21082;-66
2022/09/12 10:31:34;;;;;;;9.17;2.33;;;;;;;;;;5089948;28;20515;-68
2022/09/12 10:34:00;;;;;;;2.40;2.17;;;;;;;;;;5091585;28;20420;-67
2022/09/12 10:36:36;;;;;;;3.90;1.93;;;;;;;;;;5085745;28;20955;-67
2022/09/12 10:39:02;;;;;;;2.20;2.10;;;;;;;;;;5088022;28;20490;-67
2022/09/12 10:41:35;;;;;;;1.83;1.80;;;;;;;;;;5087363;28;20935;-66
2022/09/12 10:44:06;;;;;;;2.60;1.80;;;;;;;;;;5088898;28;20456;-66
2022/09/12 10:46:32;;;;;;;6.13;1.93;;;;;;;;;;5089173;28;20428;-66
2022/09/12 10:49:12;;;;;;;1.90;1.80;;;;;;;;;;5089929;28;20467;-66
2022/09/12 10:51:38;;;;;;;7.73;2.00;;;;;;;;;;5087174;28;20467;-67
2022/09/12 10:54:07;;;;;;;3.37;1.60;;;;;;;;;;5090278;28;20444;-66
2022/09/12 10:56:51;;;;;;;2.20;1.80;;;;;;;;;;5085244;28;20433;-66
2022/09/12 10:59:40;;;;;;;1.60;1.50;;;;;;;;;;5087327;28;20558;-66
2022/09/12 11:02:14;;;;;;;1.63;1.63;;;;;;;;;;5086859;28;20531;-67
2022/09/12 11:04:59;;;;;;;2.50;2.27;;;;;;;;;;5091402;28;20424;-66
2022/09/12 11:07:27;;;;;;;1.40;1.40;;;;;;;;;;5086011;28;20432;-66
2022/09/12 11:10:02;;;;;;;1.90;1.80;;;;;;;;;;5087809;28;20976;-67
2022/09/12 11:12:28;;;;;;;1.90;1.70;;;;;;;;;;5088015;28;20438;-67
2022/09/12 11:15:01;;;;;;;2.10;1.57;;;;;;;;;;5084459;28;20562;-66
2022/09/12 11:17:43;;;;;;;2.00;1.90;;;;;;;;;;5089802;28;20400;-67
2022/09/12 11:20:16;;;;;;;1.57;1.57;;;;;;;;;;5072316;28;20301;-67
2022/09/12 11:22:51;;;;;;;2.30;1.53;;;;;;;;;;5088412;28;20469;-68
2022/09/12 11:25:23;;;;;;;7.50;1.97;;;;;;;;;;5086773;28;20647;-67
2022/09/12 11:28:08;;;;;;;3.60;1.70;;;;;;;;;;5088940;28;20460;-67
2022/09/12 11:30:39;;;;;;;5.73;2.00;;;;;;;;;;5089181;28;20444;-67
2022/09/12 11:33:25;;;;;;;1.43;1.43;;;;;;;;;;5089078;28;20436;-67
2022/09/12 11:35:51;;;;;;;1.23;1.23;;;;;;;;;;5085373;28;20437;-67
2022/09/12 11:38:27;;;;;;;1.50;1.50;;;;;;;;;;5088661;28;20919;-68
2022/09/12 11:40:54;;;;;;;1.20;1.10;;;;;;;;;;5085940;28;20440;-67
2022/09/12 11:43:20;;;;;;;2.00;2.00;;;;;;;;;;5082655;28;20422;-67
2022/09/12 11:45:47;;;;;;;1.43;1.33;;;;;;;;;;5090541;28;20990;-67
2022/09/12 11:48:18;;;;;;;1.30;1.30;;;;;;;;;;5088763;28;20186;-67
2022/09/12 11:50:44;;;;;;;0.87;0.87;;;;;;;;;;5088962;28;20478;-67
2022/09/12 11:53:15;;;;;;;2.00;1.63;;;;;;;;;;5089881;28;20806;-67
2022/09/12 11:55:48;;;;;;;1.90;1.80;;;;;;;;;;5088979;28;20451;-67
2022/09/12 11:58:14;;;;;;;1.20;1.20;;;;;;;;;;5091313;28;20555;-68
2022/09/12 12:00:43;;;;;;;2.10;1.00;;;;;;;;;;5088195;28;20432;-67
2022/09/12 12:03:14;;;;;;;1.37;0.90;;;;;;;;;;5090840;28;20855;-68
2022/09/12 12:05:46;;;;;;;0.80;0.80;;;;;;;;;;5088854;28;20941;-68
2022/09/12 12:08:13;;;;;;;1.10;1.00;;;;;;;;;;5088168;28;20436;-70
2022/09/12 12:10:48;;;;;;;0.60;0.60;;;;;;;;;;5087901;28;20999;-68
2022/09/12 12:13:14;;;;;;;0.77;0.70;;;;;;;;;;5091160;28;20908;-68
2022/09/12 12:15:45;;;;;;;0.80;0.80;;;;;;;;;;5089937;28;20428;-67
2022/09/12 12:18:18;;;;;;;1.03;0.77;;;;;;;;;;5089847;28;20515;-67
2022/09/12 12:20:44;;;;;;;0.70;0.70;;;;;;;;;;5090917;28;20420;-66
2022/09/12 12:23:27;;;;;;;1.40;1.20;;;;;;;;;;5090805;28;20440;-66
2022/09/12 12:25:54;;;;;;;1.00;1.00;;;;;;;;;;5089405;28;20472;-66
2022/09/12 12:28:39;;;;;;;5.70;3.70;;;;;;;;;;5089357;28;20424;-67
2022/09/12 12:31:05;;;;;;;3.80;1.90;;;;;;;;;;5089408;28;20771;-68
2022/09/12 12:33:31;;;;;;;0.90;0.90;;;;;;;;;;5091016;28;20532;-67
2022/09/12 12:35:59;;;;;;;0.70;0.70;;;;;;;;;;5090093;28;20900;-67
2022/09/12 12:38:30;;;;;;;2.63;0.77;;;;;;;;;;5089330;28;20195;-68
2022/09/12 12:41:15;;;;;;;0.70;0.70;;;;;;;;;;5089735;28;20928;-69
2022/09/12 12:43:41;;;;;;;0.73;0.73;;;;;;;;;;5089811;28;20494;-69
2022/09/12 12:46:08;;;;;;;0.80;0.80;;;;;;;;;;5089052;28;20816;-67
2022/09/12 12:48:36;;;;;;;1.23;1.23;;;;;;;;;;5089280;28;20525;-68
2022/09/12 12:51:22;;;;;;;0.80;0.80;;;;;;;;;;5089235;28;20439;-69
2022/09/12 12:53:48;;;;;;;1.10;1.10;;;;;;;;;;5089380;28;20452;-67
2022/09/12 12:56:26;;;;;;;1.97;1.00;;;;;;;;;;5085095;28;20444;-67
2022/09/12 12:59:04;;;;;;;2.20;1.00;;;;;;;;;;5088507;28;20555;-66
2022/09/12 13:01:38;;;;;;;0.57;0.57;;;;;;;;;;5086715;28;20417;-70
2022/09/12 13:04:11;;;;;;;0.60;0.60;;;;;;;;;;5085983;28;20428;-69
2022/09/12 13:06:39;;;;;;;0.60;0.60;;;;;;;;;;5086529;28;20460;-67
2022/09/12 13:09:16;;;;;;;0.80;0.80;;;;;;;;;;5087637;28;20483;-69
2022/09/12 13:11:43;;;;;;;4.63;0.63;;;;;;;;;;5068679;28;20459;-69
2022/09/12 13:14:29;;;;;;;0.90;0.90;;;;;;;;;;5087447;28;20925;-67
2022/09/12 13:16:58;;;;;;;0.93;0.80;;;;;;;;;;5057459;28;20888;-69
2022/09/12 13:19:28;;;;;;;0.97;0.93;;;;;;;;;;5085525;28;20520;-66
2022/09/12 13:22:05;;;;;;;0.70;0.70;;;;;;;;;;5087124;28;20508;-68
2022/09/12 13:24:31;;;;;;;8.00;0.60;;;;;;;;;;5087522;28;20941;-69
2022/09/12 13:26:57;;;;;;;0.73;0.73;;;;;;;;;;5087657;28;20895;-68
2022/09/12 13:29:24;;;;;;;2.60;2.50;;;;;;;;;;5087045;28;20547;-68
2022/09/12 13:31:55;;;;;;;0.70;0.70;;;;;;;;;;5088255;28;20428;-67
2022/09/12 13:34:23;;;;;;;0.87;0.87;;;;;;;;;;5089340;28;20425;-67
2022/09/12 13:37:08;;;;;;;0.57;0.40;;;;;;;;;;5088509;28;20428;-66
2022/09/12 13:39:37;;;;;;;0.83;0.70;;;;;;;;;;5088101;28;20486;-66
2022/09/12 13:42:25;;;;;;;2.77;0.70;;;;;;;;;;5086419;28;20526;-66
2022/09/12 13:44:57;;;;;;;1.33;1.00;;;;;;;;;;5089405;28;20433;-68
2022/09/12 13:47:26;;;;;;;0.67;0.67;;;;;;;;;;5087693;28;20461;-68
2022/09/12 13:49:53;;;;;;;0.50;0.50;;;;;;;;;;5088929;28;20483;-66
2022/09/12 13:52:20;;;;;;;0.50;0.50;;;;;;;;;;5087616;28;20515;-67
2022/09/12 13:54:49;;;;;;;0.70;0.70;;;;;;;;;;5089259;28;20428;-67
2022/09/12 13:57:29;;;;;;;1.27;0.70;;;;;;;;;;5087715;28;20950;-68
2022/09/12 13:59:56;;;;;;;0.63;0.63;;;;;;;;;;5089130;28;20432;-66
2022/09/12 14:02:24;;;;;;;0.50;0.50;;;;;;;;;;5087208;28;21115;-68
2022/09/12 14:05:08;;;;;;;0.50;0.50;;;;;;;;;;5088136;28;20466;-66
2022/09/12 14:07:38;;;;;;;0.43;0.43;;;;;;;;;;5089053;28;20428;-66
2022/09/12 14:10:04;;;;;;;1.63;1.00;;;;;;;;;;5086862;28;21061;-66
2022/09/12 14:12:33;;;;;;;0.77;0.77;;;;;;;;;;5089588;28;20990;-66
2022/09/12 14:15:00;;;;;;;0.60;0.60;;;;;;;;;;5084083;28;20437;-68
2022/09/12 14:17:38;;;;;;;2.57;0.47;;;;;;;;;;5089361;28;20773;-67
2022/09/12 14:20:17;;;;;;;0.97;0.77;;;;;;;;;;5084269;28;20464;-66
2022/09/12 14:22:43;;;;;;;3.15;0.70;;;;;;;;;;5084727;28;20448;-67
2022/09/12 14:25:17;;;;;;;2.10;1.00;;;;;;;;;;5087174;28;20174;-67
2022/09/12 14:27:48;;;;;;;0.83;0.83;;;;;;;;;;5088558;28;20440;-67
2022/09/12 14:30:17;;;;;;;0.97;0.80;;;;;;;;;;5087362;28;21026;-66
2022/09/12 14:32:43;;;;;;;3.47;0.80;;;;;;;;;;5087939;28;20519;-67
2022/09/12 14:35:12;;;;;;;1.07;0.60;;;;;;;;;;5085506;28;20507;-66
2022/09/12 14:37:38;;;;;;;0.60;0.60;;;;;;;;;;5087300;28;20520;-66
2022/09/12 14:40:15;;;;;;;2.23;0.80;;;;;;;;;;5087624;28;20432;-68
2022/09/12 14:42:41;;;;;;;1.00;1.00;;;;;;;;;;5088550;28;20459;-68
2022/09/12 14:45:16;;;;;;;4.93;0.80;;;;;;;;;;5088683;28;20491;-68
2022/09/12 14:47:43;;;;;;;1.27;1.13;;;;;;;;;;5087021;28;20524;-67
2022/09/12 14:50:15;;;;;;;0.97;0.97;;;;;;;;;;5087235;28;20476;-67
2022/09/12 14:52:42;;;;;;;0.57;0.57;;;;;;;;;;5088272;28;20511;-67
2022/09/12 14:55:17;;;;;;;0.60;0.60;;;;;;;;;;5086850;28;20435;-66
2022/09/12 14:57:44;;;;;;;3.00;0.70;;;;;;;;;;5088495;28;21004;-66
2022/09/12 15:00:13;;;;;;;0.90;0.90;;;;;;;;;;5086501;28;20565;-66